createdAt,value
2018-04-15T00:00:10.034Z,53.1
2018-04-15T00:01:00.691Z,53.1
2018-04-15T00:01:50.765Z,53.1
2018-04-15T00:02:40.233Z,53.1
2018-04-15T00:03:30.596Z,53.1
2018-04-15T00:04:20.375Z,53.1
2018-04-15T00:05:11.005Z,53.1
2018-04-15T00:06:00.475Z,53.1
2018-04-15T00:06:51.096Z,53.1
2018-04-15T00:07:40.655Z,53
2018-04-15T00:08:31.264Z,53
2018-04-15T00:09:21.016Z,53
2018-04-15T00:10:11.086Z,53
2018-04-15T00:11:01.431Z,53
2018-04-15T00:11:51.248Z,53
2018-04-15T00:12:41.550Z,52.9
2018-04-15T00:13:31.825Z,53
2018-04-15T00:14:21.168Z,52.9
2018-04-15T00:15:11.757Z,52.9
2018-04-15T00:16:01.867Z,52.9
2018-04-15T00:16:51.858Z,52.9
2018-04-15T00:17:41.937Z,52.9
2018-04-15T00:18:31.992Z,52.9
2018-04-15T00:19:21.510Z,52.9
2018-04-15T00:20:11.857Z,52.9
2018-04-15T00:21:01.689Z,52.9
2018-04-15T00:21:51.433Z,52.9
2018-04-15T00:22:41.800Z,52.9
2018-04-15T00:23:32.016Z,52.9
2018-04-15T00:24:21.428Z,52.9
2018-04-15T00:25:11.955Z,52.9
2018-04-15T00:26:02.039Z,52.9
2018-04-15T00:26:52.098Z,52.9
2018-04-15T00:27:42.639Z,52.9
2018-04-15T00:28:32.503Z,52.8
2018-04-15T00:29:22.861Z,52.8
2018-04-15T00:30:12.349Z,52.8
2018-04-15T00:31:02.948Z,52.8
2018-04-15T00:31:52.450Z,52.8
2018-04-15T00:32:42.514Z,52.8
2018-04-15T00:33:32.396Z,52.8
2018-04-15T00:34:23.226Z,52.8
2018-04-15T00:35:12.780Z,52.8
2018-04-15T00:36:02.626Z,52.8
2018-04-15T00:36:52.073Z,52.8
2018-04-15T00:37:42.708Z,52.8
2018-04-15T00:38:32.213Z,52.8
2018-04-15T00:39:23.161Z,52.8
2018-04-15T00:40:13.183Z,52.8
2018-04-15T00:41:02.960Z,52.8
2018-04-15T00:41:53.037Z,52.7
2018-04-15T00:42:43.855Z,52.7
2018-04-15T00:43:33.926Z,52.7
2018-04-15T00:44:23.235Z,52.7
2018-04-15T00:45:14.021Z,52.7
2018-04-15T00:46:03.823Z,52.7
2018-04-15T00:46:54.148Z,52.6
2018-04-15T00:47:44.231Z,52.6
2018-04-15T00:48:34.294Z,52.6
2018-04-15T00:49:24.071Z,52.6
2018-04-15T00:50:14.154Z,52.6
2018-04-15T00:51:04.500Z,52.6
2018-04-15T00:51:54.280Z,52.6
2018-04-15T00:52:44.320Z,52.6
2018-04-15T00:53:34.670Z,52.6
2018-04-15T00:54:24.725Z,52.6
2018-04-15T00:55:13.990Z,52.6
2018-04-15T00:56:04.332Z,52.6
2018-04-15T00:56:54.932Z,52.6
2018-04-15T00:57:43.860Z,52.6
2018-04-15T00:58:35.063Z,52.6
2018-04-15T00:59:24.318Z,52.6
2018-04-15T01:00:15.216Z,52.6
2018-04-15T01:01:05.010Z,52.5
2018-04-15T01:01:55.018Z,52.5
2018-04-15T01:02:45.405Z,52.5
2018-04-15T01:03:35.188Z,52.5
2018-04-15T01:04:25.514Z,52.5
2018-04-15T01:05:15.283Z,52.5
2018-04-15T01:06:05.655Z,52.5
2018-04-15T01:06:55.426Z,52.5
2018-04-15T01:07:45.479Z,52.4
2018-04-15T01:08:35.853Z,52.4
2018-04-15T01:09:25.646Z,52.4
2018-04-15T01:10:15.660Z,52.4
2018-04-15T01:11:05.746Z,52.4
2018-04-15T01:11:55.790Z,52.4
2018-04-15T01:12:45.864Z,52.4
2018-04-15T01:13:36.258Z,52.4
2018-04-15T01:14:25.706Z,52.4
2018-04-15T01:15:16.108Z,52.4
2018-04-15T01:21:05.998Z,52.3
2018-04-15T01:21:56.835Z,52.3
2018-04-15T01:22:46.347Z,52.3
2018-04-15T01:23:36.726Z,52.3
2018-04-15T01:24:26.780Z,52.3
2018-04-15T01:25:17.185Z,52.3
2018-04-15T01:26:06.918Z,52.3
2018-04-15T01:26:57.256Z,52.3
2018-04-15T01:27:46.995Z,52.3
2018-04-15T01:28:37.347Z,52.3
2018-04-15T01:29:27.421Z,52.3
2018-04-15T01:30:17.237Z,52.3
2018-04-15T01:31:07.294Z,52.3
2018-04-15T01:31:57.602Z,52.3
2018-04-15T01:32:47.417Z,52.3
2018-04-15T01:33:37.235Z,52.3
2018-04-15T01:34:27.000Z,52.3
2018-04-15T01:35:17.617Z,52.2
2018-04-15T01:36:08.022Z,52.3
2018-04-15T01:36:58.022Z,52.2
2018-04-15T01:37:48.085Z,52.2
2018-04-15T01:38:37.292Z,52.2
2018-04-15T01:39:27.365Z,52.2
2018-04-15T01:40:18.229Z,52.2
2018-04-15T01:41:08.329Z,52.2
2018-04-15T01:41:57.832Z,52.1
2018-04-15T01:42:48.167Z,52.1
2018-04-15T01:43:38.241Z,52.1
2018-04-15T01:44:28.341Z,52.1
2018-04-15T01:45:18.379Z,52.1
2018-04-15T01:46:08.140Z,52.1
2018-04-15T01:46:58.216Z,52.1
2018-04-15T01:47:48.579Z,52.1
2018-04-15T01:48:38.329Z,52.1
2018-04-15T01:49:28.966Z,52.1
2018-04-15T01:50:18.188Z,52.1
2018-04-15T01:51:08.273Z,52.1
2018-04-15T01:51:58.875Z,52.1
2018-04-15T01:52:48.944Z,52.1
2018-04-15T01:53:38.532Z,52.1
2018-04-15T01:54:29.075Z,52.1
2018-04-15T01:55:19.417Z,52
2018-04-15T01:56:08.629Z,52
2018-04-15T01:56:59.551Z,52
2018-04-15T01:57:49.588Z,52
2018-04-15T01:58:39.107Z,52
2018-04-15T01:59:29.140Z,52
2018-04-15T02:00:19.786Z,52
2018-04-15T02:01:09.582Z,52
2018-04-15T02:10:20.529Z,51.9
2018-04-15T02:11:10.612Z,51.9
2018-04-15T02:11:59.839Z,51.9
2018-04-15T02:12:50.452Z,51.9
2018-04-15T02:13:40.263Z,51.9
2018-04-15T02:14:30.651Z,51.9
2018-04-15T02:15:20.384Z,51.9
2018-04-15T02:16:10.974Z,51.8
2018-04-15T02:17:01.049Z,51.8
2018-04-15T02:17:50.563Z,51.8
2018-04-15T02:18:40.912Z,51.8
2018-04-15T02:19:30.707Z,51.8
2018-04-15T02:20:21.059Z,51.8
2018-04-15T02:21:10.547Z,51.8
2018-04-15T02:22:00.894Z,51.8
2018-04-15T02:22:51.500Z,51.8
2018-04-15T02:23:41.553Z,51.8
2018-04-15T02:24:31.369Z,51.8
2018-04-15T02:25:21.148Z,51.8
2018-04-15T02:26:11.754Z,51.8
2018-04-15T02:27:01.815Z,51.8
2018-04-15T02:27:51.599Z,51.8
2018-04-15T02:28:41.924Z,51.8
2018-04-15T02:29:31.994Z,51.8
2018-04-15T02:30:21.805Z,51.7
2018-04-15T02:31:11.859Z,51.7
2018-04-15T02:32:01.679Z,51.7
2018-04-15T02:32:52.264Z,51.7
2018-04-15T02:33:42.071Z,51.7
2018-04-15T02:34:32.411Z,51.7
2018-04-15T02:35:21.909Z,51.7
2018-04-15T02:36:12.283Z,51.7
2018-04-15T02:37:02.329Z,51.6
2018-04-15T02:37:52.103Z,51.6
2018-04-15T02:38:42.774Z,51.6
2018-04-15T02:39:31.941Z,51.6
2018-04-15T02:40:22.882Z,51.6
2018-04-15T02:41:12.344Z,51.6
2018-04-15T02:42:02.428Z,51.6
2018-04-15T02:42:52.771Z,51.6
2018-04-15T02:43:42.841Z,51.6
2018-04-15T02:44:32.888Z,51.6
2018-04-15T02:45:23.265Z,51.6
2018-04-15T02:46:12.764Z,51.6
2018-04-15T02:47:03.098Z,51.6
2018-04-15T02:47:52.896Z,51.6
2018-04-15T02:48:43.487Z,51.6
2018-04-15T02:49:32.722Z,51.6
2018-04-15T02:50:23.346Z,51.5
2018-04-15T02:51:13.683Z,51.5
2018-04-15T02:52:03.468Z,51.5
2018-04-15T02:52:52.953Z,51.5
2018-04-15T02:53:43.056Z,51.5
2018-04-15T02:54:33.930Z,51.5
2018-04-15T02:55:24.016Z,51.5
2018-04-15T02:56:14.068Z,51.5
2018-04-15T02:57:03.848Z,51.5
2018-04-15T02:57:53.616Z,51.5
2018-04-15T02:58:44.267Z,51.5
2018-04-15T02:59:33.745Z,51.4
2018-04-15T03:00:24.107Z,51.4
2018-04-15T03:01:14.458Z,51.4
2018-04-15T03:02:04.239Z,51.4
2018-04-15T03:02:54.613Z,51.4
2018-04-15T03:03:44.345Z,51.4
2018-04-15T03:04:33.853Z,51.4
2018-04-15T03:05:24.777Z,51.4
2018-04-15T03:06:14.843Z,51.4
2018-04-15T03:07:04.040Z,51.4
2018-04-15T03:07:54.947Z,51.4
2018-04-15T03:08:44.741Z,51.4
2018-04-15T03:09:35.060Z,51.4
2018-04-15T03:10:25.141Z,51.4
2018-04-15T03:11:14.662Z,51.4
2018-04-15T03:12:04.477Z,51.3
2018-04-15T03:12:55.307Z,51.3
2018-04-15T03:13:44.867Z,51.3
2018-04-15T03:14:35.176Z,51.3
2018-04-15T03:15:25.224Z,51.3
2018-04-15T03:16:15.287Z,51.3
2018-04-15T03:17:05.646Z,51.3
2018-04-15T03:17:55.151Z,51.3
2018-04-15T03:18:45.514Z,51.3
2018-04-15T03:19:35.634Z,51.3
2018-04-15T03:20:25.907Z,51.3
2018-04-15T03:21:15.423Z,51.3
2018-04-15T03:22:05.781Z,51.3
2018-04-15T03:22:55.790Z,51.3
2018-04-15T03:23:46.171Z,51.3
2018-04-15T03:24:36.208Z,51.3
2018-04-15T03:25:26.438Z,51.3
2018-04-15T03:26:16.080Z,51.2
2018-04-15T03:27:06.127Z,51.3
2018-04-15T03:27:56.193Z,51.2
2018-04-15T03:28:46.582Z,51.2
2018-04-15T03:29:36.046Z,51.2
2018-04-15T03:30:26.464Z,51.2
2018-04-15T03:31:16.156Z,51.2
2018-04-15T03:32:06.254Z,51.2
2018-04-15T03:32:56.097Z,51.1
2018-04-15T03:33:46.941Z,51.1
2018-04-15T03:34:36.694Z,51.1
2018-04-15T03:35:26.770Z,51.1
2018-04-15T03:36:17.097Z,51.1
2018-04-15T03:37:07.155Z,51.1
2018-04-15T03:37:56.691Z,51.1
2018-04-15T03:38:47.270Z,51.1
2018-04-15T03:39:37.349Z,51.1
2018-04-15T03:40:27.140Z,51.1
2018-04-15T03:41:16.930Z,51.1
2018-04-15T03:42:07.554Z,51.1
2018-04-15T03:42:57.615Z,51.1
2018-04-15T03:43:47.432Z,51.1
2018-04-15T03:44:37.466Z,51.1
2018-04-15T03:45:26.983Z,51.1
2018-04-15T03:46:17.552Z,51.1
2018-04-15T03:47:07.654Z,51
2018-04-15T03:47:57.441Z,51
2018-04-15T03:48:47.222Z,51
2018-04-15T03:49:37.844Z,51
2018-04-15T03:50:27.914Z,51
2018-04-15T03:51:17.704Z,51
2018-04-15T03:52:08.044Z,51
2018-04-15T03:52:58.383Z,51
2018-04-15T03:53:48.420Z,50.9
2018-04-15T03:54:38.234Z,51
2018-04-15T03:55:27.474Z,50.9
2018-04-15T03:56:18.339Z,50.9
2018-04-15T03:57:08.711Z,50.9
2018-04-15T03:57:57.936Z,50.9
2018-04-15T03:58:48.565Z,50.9
2018-04-15T03:59:38.614Z,50.9
2018-04-15T04:00:28.973Z,50.9
2018-04-15T04:01:18.741Z,50.9
2018-04-15T04:02:08.894Z,50.9
2018-04-15T04:02:58.856Z,50.9
2018-04-15T04:03:48.931Z,50.9
2018-04-15T04:04:38.976Z,50.9
2018-04-15T04:05:29.336Z,50.9
2018-04-15T04:06:19.093Z,50.9
2018-04-15T04:07:08.933Z,50.9
2018-04-15T04:07:59.539Z,50.8
2018-04-15T04:08:49.301Z,50.9
2018-04-15T04:09:39.648Z,50.8
2018-04-15T04:10:29.733Z,50.8
2018-04-15T04:11:19.767Z,50.8
2018-04-15T04:12:09.828Z,50.8
2018-04-15T04:12:59.342Z,50.8
2018-04-15T04:13:49.949Z,50.8
2018-04-15T04:14:39.477Z,50.8
2018-04-15T04:15:29.531Z,50.8
2018-04-15T04:16:19.608Z,50.8
2018-04-15T04:17:09.946Z,50.8
2018-04-15T04:18:00.312Z,50.8
2018-04-15T04:18:49.778Z,50.8
2018-04-15T04:19:40.189Z,50.8
2018-04-15T04:20:30.845Z,50.8
2018-04-15T04:21:19.985Z,50.8
2018-04-15T04:22:10.596Z,50.8
2018-04-15T04:23:00.680Z,50.8
2018-04-15T04:23:50.447Z,50.7
2018-04-15T04:24:40.777Z,50.7
2018-04-15T04:25:30.588Z,50.7
2018-04-15T04:26:20.907Z,50.7
2018-04-15T04:27:10.431Z,50.7
2018-04-15T04:28:00.472Z,50.7
2018-04-15T04:28:50.265Z,50.7
2018-04-15T04:29:41.167Z,50.7
2018-04-15T04:30:31.247Z,50.7
2018-04-15T04:31:21.334Z,50.7
2018-04-15T04:32:11.115Z,50.6
2018-04-15T04:33:01.199Z,50.6
2018-04-15T04:33:51.492Z,50.6
2018-04-15T04:34:40.746Z,50.6
2018-04-15T04:35:31.629Z,50.6
2018-04-15T04:36:21.401Z,50.6
2018-04-15T04:37:11.207Z,50.6
2018-04-15T04:38:01.554Z,50.6
2018-04-15T04:38:51.327Z,50.6
2018-04-15T04:39:41.861Z,50.6
2018-04-15T04:40:31.733Z,50.6
2018-04-15T04:41:21.806Z,50.6
2018-04-15T04:42:11.564Z,50.6
2018-04-15T04:43:02.203Z,50.6
2018-04-15T04:43:51.675Z,50.5
2018-04-15T04:44:41.808Z,50.6
2018-04-15T04:45:31.839Z,50.5
2018-04-15T04:46:22.467Z,50.5
2018-04-15T04:47:12.514Z,50.5
2018-04-15T04:48:02.576Z,50.5
2018-04-15T04:48:52.381Z,50.5
2018-04-15T04:49:42.185Z,50.5
2018-04-15T04:50:32.762Z,50.5
2018-04-15T04:51:22.566Z,50.5
2018-04-15T04:52:12.905Z,50.5
2018-04-15T04:53:02.696Z,50.5
2018-04-15T04:53:52.466Z,50.4
2018-04-15T04:54:42.845Z,50.4
2018-04-15T04:55:33.148Z,50.4
2018-04-15T04:56:22.928Z,50.4
2018-04-15T04:57:13.270Z,50.4
2018-04-15T04:58:03.335Z,50.4
2018-04-15T04:58:53.422Z,50.4
2018-04-15T04:59:43.172Z,50.4
2018-04-15T05:00:32.992Z,50.4
2018-04-15T05:01:23.342Z,50.4
2018-04-15T05:02:13.655Z,50.4
2018-04-15T05:03:03.444Z,50.4
2018-04-15T05:03:53.525Z,50.4
2018-04-15T05:04:43.610Z,50.4
2018-04-15T05:05:33.917Z,50.4
2018-04-15T05:06:23.973Z,50.4
2018-04-15T05:07:13.744Z,50.4
2018-04-15T05:08:03.580Z,50.3
2018-04-15T05:08:53.653Z,50.3
2018-04-15T05:09:43.425Z,50.3
2018-04-15T05:10:34.134Z,50.3
2018-04-15T05:11:23.387Z,50.3
2018-04-15T05:12:13.750Z,50.3
2018-04-15T05:13:04.534Z,50.3
2018-04-15T05:13:54.264Z,50.3
2018-04-15T05:14:44.039Z,50.3
2018-04-15T05:15:34.188Z,50.3
2018-04-15T05:16:24.724Z,50.3
2018-04-15T05:17:15.111Z,50.3
2018-04-15T05:18:04.329Z,50.3
2018-04-15T05:18:54.685Z,50.3
2018-04-15T05:19:44.222Z,50.3
2018-04-15T05:20:34.502Z,50.3
2018-04-15T05:21:25.106Z,50.3
2018-04-15T05:22:14.361Z,50.2
2018-04-15T05:23:43.471Z,50.2
2018-04-15T05:24:33.527Z,50.2
2018-04-15T05:25:23.872Z,50.2
2018-04-15T05:26:13.150Z,50.2
2018-04-15T05:27:04.009Z,50.2
2018-04-15T05:27:53.770Z,50.2
2018-04-15T05:28:44.116Z,50.1
2018-04-15T05:29:34.199Z,50.1
2018-04-15T05:30:24.251Z,50.1
2018-04-15T05:31:14.080Z,50.1
2018-04-15T05:32:04.385Z,50.1
2018-04-15T05:32:54.168Z,50.1
2018-04-15T05:33:44.225Z,50.1
2018-04-15T05:34:34.016Z,50.1
2018-04-15T05:35:24.624Z,50.1
2018-04-15T05:36:14.677Z,50.1
2018-04-15T05:37:04.471Z,50.1
2018-04-15T05:37:54.811Z,50.1
2018-04-15T05:38:44.324Z,50.1
2018-04-15T05:39:34.671Z,50.1
2018-04-15T05:40:24.982Z,50.1
2018-04-15T05:41:15.040Z,50.1
2018-04-15T05:42:05.141Z,50
2018-04-15T05:42:55.215Z,50
2018-04-15T05:43:45.255Z,50
2018-04-15T05:44:35.066Z,50
2018-04-15T05:45:25.147Z,50
2018-04-15T05:46:14.970Z,50
2018-04-15T05:47:04.946Z,50
2018-04-15T05:47:55.294Z,50
2018-04-15T05:48:45.365Z,50
2018-04-15T05:49:35.433Z,50
2018-04-15T05:50:25.213Z,49.9
2018-04-15T05:51:14.970Z,49.9
2018-04-15T05:52:05.365Z,49.9
2018-04-15T05:52:55.675Z,49.9
2018-04-15T05:53:46.024Z,49.9
2018-04-15T05:54:35.507Z,49.9
2018-04-15T05:55:25.586Z,49.9
2018-04-15T05:56:14.891Z,49.9
2018-04-15T05:57:05.727Z,49.9
2018-04-15T05:57:56.367Z,49.9
2018-04-15T05:58:46.464Z,49.9
2018-04-15T05:59:36.595Z,49.9
2018-04-15T06:00:26.222Z,49.9
2018-04-15T06:01:16.357Z,49.9
2018-04-15T06:02:06.369Z,49.9
2018-04-15T06:02:56.188Z,49.9
2018-04-15T06:03:46.496Z,49.9
2018-04-15T06:04:36.859Z,49.9
2018-04-15T06:05:26.909Z,49.8
2018-04-15T06:06:16.124Z,49.8
2018-04-15T06:07:06.764Z,49.8
2018-04-15T06:07:56.536Z,49.8
2018-04-15T06:08:47.137Z,49.8
2018-04-15T06:09:36.937Z,49.8
2018-04-15T06:10:26.729Z,49.8
2018-04-15T06:11:17.099Z,49.8
2018-04-15T06:12:07.117Z,49.8
2018-04-15T06:12:57.212Z,49.8
2018-04-15T06:13:47.556Z,49.8
2018-04-15T06:14:37.069Z,49.8
2018-04-15T06:15:27.658Z,49.8
2018-04-15T06:16:17.440Z,49.8
2018-04-15T06:17:07.794Z,49.8
2018-04-15T06:17:57.601Z,49.8
2018-04-15T06:18:47.945Z,49.8
2018-04-15T06:19:37.709Z,49.8
2018-04-15T06:20:27.497Z,49.7
2018-04-15T06:21:17.569Z,49.7
2018-04-15T06:22:08.178Z,49.8
2018-04-15T06:22:57.940Z,49.7
2018-04-15T06:23:48.043Z,49.7
2018-04-15T06:24:38.484Z,49.7
2018-04-15T06:25:28.460Z,49.7
2018-04-15T06:26:18.262Z,49.7
2018-04-15T06:27:08.000Z,49.7
2018-04-15T06:27:58.047Z,49.6
2018-04-15T06:28:48.447Z,49.7
2018-04-15T06:29:38.185Z,49.6
2018-04-15T06:30:28.346Z,49.6
2018-04-15T06:31:18.621Z,49.6
2018-04-15T06:32:08.956Z,49.6
2018-04-15T06:32:58.827Z,49.6
2018-04-15T06:33:48.805Z,49.6
2018-04-15T06:34:38.655Z,49.6
2018-04-15T06:35:28.615Z,49.6
2018-04-15T06:36:18.998Z,49.6
2018-04-15T06:37:08.766Z,49.6
2018-04-15T06:37:59.094Z,49.6
2018-04-15T06:38:48.684Z,49.6
2018-04-15T06:39:39.136Z,49.6
2018-04-15T06:40:29.307Z,49.6
2018-04-15T06:41:18.812Z,49.6
2018-04-15T06:42:09.180Z,49.6
2018-04-15T06:42:59.511Z,49.6
2018-04-15T06:43:48.712Z,49.5
2018-04-15T06:44:39.631Z,49.5
2018-04-15T06:45:29.394Z,49.5
2018-04-15T06:46:19.746Z,49.5
2018-04-15T06:47:10.083Z,49.5
2018-04-15T06:48:00.140Z,49.5
2018-04-15T06:48:49.628Z,49.5
2018-04-15T06:49:40.035Z,49.5
2018-04-15T06:50:30.379Z,49.5
2018-04-15T06:51:20.375Z,49.4
2018-04-15T06:52:10.194Z,49.5
2018-04-15T06:53:00.248Z,49.4
2018-04-15T06:53:50.550Z,49.4
2018-04-15T06:54:40.385Z,49.4
2018-04-15T06:55:30.147Z,49.4
2018-04-15T06:56:20.825Z,49.4
2018-04-15T06:57:10.860Z,49.4
2018-04-15T06:58:00.886Z,49.4
2018-04-15T06:58:50.400Z,49.4
2018-04-15T06:59:40.769Z,49.4
2018-04-15T07:00:30.799Z,49.4
2018-04-15T07:01:21.146Z,49.4
2018-04-15T07:02:10.652Z,49.4
2018-04-15T07:03:00.998Z,49.4
2018-04-15T07:03:50.518Z,49.4
2018-04-15T07:04:40.859Z,49.4
2018-04-15T07:05:31.487Z,49.4
2018-04-15T07:06:20.721Z,49.3
2018-04-15T07:07:11.109Z,49.3
2018-04-15T07:08:01.184Z,49.3
2018-04-15T07:08:51.242Z,49.3
2018-04-15T07:09:42.155Z,49.3
2018-04-15T07:10:31.828Z,49.3
2018-04-15T07:11:21.150Z,49.3
2018-04-15T07:12:12.036Z,49.3
2018-04-15T07:13:01.760Z,49.3
2018-04-15T07:13:51.261Z,49.3
2018-04-15T07:14:41.896Z,49.3
2018-04-15T07:15:32.231Z,49.4
2018-04-15T07:16:22.034Z,49.3
2018-04-15T07:17:12.100Z,49.1
2018-04-15T07:18:02.183Z,48.9
2018-04-15T07:18:52.471Z,48.7
2018-04-15T07:19:42.256Z,48.6
2018-04-15T07:20:32.031Z,48.5
2018-04-15T07:21:22.121Z,48.4
2018-04-15T07:22:11.912Z,48.4
2018-04-15T07:23:02.039Z,48.4
2018-04-15T07:23:52.913Z,48.4
2018-04-15T07:24:42.293Z,48.4
2018-04-15T07:25:32.760Z,48.4
2018-04-15T07:26:23.106Z,48.3
2018-04-15T07:27:13.113Z,48.4
2018-04-15T07:28:02.677Z,48.3
2018-04-15T07:28:53.289Z,48.3
2018-04-15T07:29:42.759Z,48.3
2018-04-15T07:30:33.194Z,48.3
2018-04-15T07:31:23.197Z,48.3
2018-04-15T07:32:13.516Z,48.3
2018-04-15T07:33:02.745Z,48.3
2018-04-15T07:33:53.106Z,48.3
2018-04-15T07:34:43.441Z,48.3
2018-04-15T07:35:33.199Z,48.3
2018-04-15T07:36:23.410Z,48.2
2018-04-15T07:37:13.870Z,48.2
2018-04-15T07:38:03.679Z,48.2
2018-04-15T07:38:53.280Z,48.2
2018-04-15T07:39:44.091Z,48.2
2018-04-15T07:40:34.146Z,48.2
2018-04-15T07:41:24.239Z,48.1
2018-04-15T07:42:13.728Z,48.1
2018-04-15T07:43:03.806Z,48.2
2018-04-15T07:43:53.851Z,48.2
2018-04-15T07:44:43.910Z,48.2
2018-04-15T07:45:34.530Z,48.2
2018-04-15T07:46:24.693Z,48.1
2018-04-15T07:47:14.110Z,48.2
2018-04-15T07:48:04.496Z,48.2
2018-04-15T07:48:54.793Z,48.1
2018-04-15T07:49:44.619Z,48.1
2018-04-15T07:50:35.197Z,48.1
2018-04-15T07:51:24.977Z,48.1
2018-04-15T07:52:15.061Z,48.1
2018-04-15T07:53:04.835Z,48.1
2018-04-15T07:53:55.187Z,48.1
2018-04-15T07:54:44.981Z,48.1
2018-04-15T07:55:35.030Z,48.1
2018-04-15T07:56:25.369Z,48.1
2018-04-15T07:57:15.152Z,48.1
2018-04-15T07:58:04.965Z,48.1
2018-04-15T07:58:55.559Z,48.2
2018-04-15T07:59:45.354Z,48.3
2018-04-15T08:00:35.424Z,48.3
2018-04-15T08:01:25.749Z,48.3
2018-04-15T08:02:15.885Z,48.3
2018-04-15T08:03:05.346Z,48.3
2018-04-15T08:03:55.946Z,48.3
2018-04-15T08:04:46.009Z,48.3
2018-04-15T08:05:35.806Z,48.3
2018-04-15T08:06:25.864Z,48.3
2018-04-15T08:07:15.950Z,48.2
2018-04-15T08:08:06.051Z,48.2
2018-04-15T08:08:56.053Z,48.2
2018-04-15T08:09:45.872Z,48.2
2018-04-15T08:10:36.472Z,48.2
2018-04-15T08:11:26.249Z,48.2
2018-04-15T08:12:15.749Z,48.2
2018-04-15T08:13:06.671Z,48.2
2018-04-15T08:13:56.740Z,48.1
2018-04-15T08:14:46.248Z,48.1
2018-04-15T08:15:36.853Z,48.1
2018-04-15T08:16:26.643Z,48.1
2018-04-15T08:17:17.218Z,48.1
2018-04-15T08:18:06.780Z,48.1
2018-04-15T08:18:57.121Z,48.1
2018-04-15T08:19:46.420Z,48.1
2018-04-15T08:20:37.010Z,48.1
2018-04-15T08:21:26.818Z,48.1
2018-04-15T08:22:16.806Z,48.2
2018-04-15T08:23:06.878Z,48.2
2018-04-15T08:23:56.945Z,48.3
2018-04-15T08:24:47.563Z,48.3
2018-04-15T08:25:37.633Z,48.3
2018-04-15T08:26:27.683Z,48.3
2018-04-15T08:27:17.496Z,48.3
2018-04-15T08:28:07.866Z,48.3
2018-04-15T08:28:57.897Z,48.3
2018-04-15T08:29:47.108Z,48.3
2018-04-15T08:30:38.012Z,48.3
2018-04-15T08:31:28.061Z,48.3
2018-04-15T08:32:18.141Z,48.3
2018-04-15T08:33:07.718Z,48.3
2018-04-15T08:33:58.072Z,48.2
2018-04-15T08:34:47.884Z,48.3
2018-04-15T08:35:38.125Z,48.3
2018-04-15T08:36:28.064Z,48.3
2018-04-15T08:37:17.942Z,48.4
2018-04-15T08:38:08.575Z,48.4
2018-04-15T08:38:58.348Z,48.6
2018-04-15T08:39:48.707Z,48.6
2018-04-15T08:40:38.517Z,48.7
2018-04-15T08:41:28.869Z,48.8
2018-04-15T08:42:18.447Z,48.8
2018-04-15T08:43:08.173Z,48.9
2018-04-15T08:43:59.050Z,48.9
2018-04-15T08:44:49.104Z,49
2018-04-15T08:45:39.194Z,49.1
2018-04-15T08:46:29.235Z,49.1
2018-04-15T08:47:19.344Z,49.2
2018-04-15T08:48:08.842Z,49.3
2018-04-15T08:48:59.149Z,49.3
2018-04-15T08:49:49.245Z,49.4
2018-04-15T08:50:38.452Z,49.4
2018-04-15T08:51:29.073Z,49.6
2018-04-15T08:52:19.426Z,49.6
2018-04-15T08:53:09.188Z,49.7
2018-04-15T08:53:59.816Z,49.8
2018-04-15T08:54:49.311Z,49.9
2018-04-15T08:55:39.679Z,49.9
2018-04-15T08:56:29.748Z,50
2018-04-15T08:57:19.350Z,50.1
2018-04-15T08:58:09.628Z,50.2
2018-04-15T08:58:59.925Z,50.3
2018-04-15T08:59:50.286Z,50.3
2018-04-15T09:00:40.296Z,50.4
2018-04-15T09:01:30.405Z,50.4
2018-04-15T09:02:20.187Z,50.5
2018-04-15T09:03:10.086Z,50.5
2018-04-15T09:04:00.033Z,50.6
2018-04-15T09:04:50.393Z,50.6
2018-04-15T09:05:40.187Z,50.6
2018-04-15T09:06:30.259Z,50.7
2018-04-15T09:07:20.562Z,50.7
2018-04-15T09:08:10.675Z,50.7
2018-04-15T09:09:00.518Z,50.7
2018-04-15T09:09:51.276Z,50.7
2018-04-15T09:10:40.830Z,50.7
2018-04-15T09:11:31.176Z,50.7
2018-04-15T09:12:20.122Z,50.7
2018-04-15T09:13:11.063Z,50.7
2018-04-15T09:14:00.836Z,50.7
2018-04-15T09:14:51.443Z,50.7
2018-04-15T09:15:40.979Z,50.6
2018-04-15T09:16:31.632Z,50.7
2018-04-15T09:17:21.038Z,50.6
2018-04-15T09:18:11.994Z,50.6
2018-04-15T09:19:01.241Z,50.6
2018-04-15T09:19:51.344Z,50.6
2018-04-15T09:20:41.144Z,50.6
2018-04-15T09:21:31.669Z,50.6
2018-04-15T09:22:21.651Z,50.6
2018-04-15T09:23:11.717Z,50.6
2018-04-15T09:24:01.625Z,50.6
2018-04-15T09:24:51.386Z,50.6
2018-04-15T09:25:41.736Z,50.6
2018-04-15T09:26:32.715Z,50.6
2018-04-15T09:27:22.131Z,50.6
2018-04-15T09:28:11.923Z,50.5
2018-04-15T09:29:02.291Z,50.4
2018-04-15T09:29:52.323Z,50.4
2018-04-15T09:30:42.095Z,50.5
2018-04-15T09:31:32.259Z,50.5
2018-04-15T09:32:22.537Z,50.5
2018-04-15T09:33:12.298Z,50.6
2018-04-15T09:34:02.927Z,50.5
2018-04-15T09:34:52.705Z,50.5
2018-04-15T09:35:43.200Z,50.5
2018-04-15T09:36:33.127Z,50.5
2018-04-15T09:37:22.735Z,50.5
2018-04-15T09:38:12.668Z,50.4
2018-04-15T09:39:02.464Z,50.4
2018-04-15T09:39:53.119Z,50.4
2018-04-15T09:40:42.602Z,50.4
2018-04-15T09:41:33.509Z,50.4
2018-04-15T09:42:23.027Z,50.4
2018-04-15T09:43:13.661Z,50.4
2018-04-15T09:44:03.672Z,50.4
2018-04-15T09:44:53.469Z,50.4
2018-04-15T09:45:43.528Z,50.4
2018-04-15T09:46:33.613Z,50.4
2018-04-15T09:47:23.945Z,50.4
2018-04-15T09:48:14.011Z,50.4
2018-04-15T09:49:04.068Z,50.4
2018-04-15T09:49:53.589Z,50.3
2018-04-15T09:50:43.933Z,50.3
2018-04-15T09:51:34.287Z,50.3
2018-04-15T09:52:23.790Z,50.3
2018-04-15T09:53:13.836Z,50.3
2018-04-15T09:54:04.209Z,50.3
2018-04-15T09:54:54.533Z,50.3
2018-04-15T09:55:44.603Z,50.3
2018-04-15T09:56:34.737Z,50.3
2018-04-15T09:57:24.485Z,50.3
2018-04-15T09:58:13.943Z,50.3
2018-04-15T09:59:03.721Z,50.3
2018-04-15T09:59:54.388Z,50.3
2018-04-15T10:00:44.705Z,50.3
2018-04-15T10:01:34.782Z,50.3
2018-04-15T10:02:24.829Z,50.3
2018-04-15T10:03:14.927Z,50.2
2018-04-15T10:04:04.984Z,50.2
2018-04-15T10:04:55.044Z,50.2
2018-04-15T10:05:45.117Z,50.2
2018-04-15T10:06:35.011Z,50.2
2018-04-15T10:07:25.531Z,50.2
2018-04-15T10:08:15.602Z,50.2
2018-04-15T10:09:05.051Z,50.2
2018-04-15T10:09:55.416Z,50.1
2018-04-15T10:10:45.506Z,50.2
2018-04-15T10:11:35.818Z,50.1
2018-04-15T10:12:25.404Z,50.1
2018-04-15T10:13:15.968Z,50.1
2018-04-15T10:14:05.996Z,50.1
2018-04-15T10:14:56.093Z,50.1
2018-04-15T10:15:45.595Z,50.1
2018-04-15T10:16:35.678Z,50.1
2018-04-15T10:17:26.236Z,50.1
2018-04-15T10:18:16.046Z,50.1
2018-04-15T10:19:05.566Z,50.1
2018-04-15T10:19:56.176Z,50.1
2018-04-15T10:20:46.247Z,50.1
2018-04-15T10:21:36.304Z,50.1
2018-04-15T10:22:26.632Z,50.1
2018-04-15T10:23:16.149Z,50
2018-04-15T10:24:07.265Z,50
2018-04-15T10:24:56.840Z,50
2018-04-15T10:25:46.916Z,50
2018-04-15T10:26:36.447Z,50
2018-04-15T10:27:27.031Z,50
2018-04-15T10:28:16.806Z,50
2018-04-15T10:29:07.153Z,49.9
2018-04-15T10:29:57.235Z,49.9
2018-04-15T10:30:47.296Z,49.9
2018-04-15T10:31:37.079Z,49.9
2018-04-15T10:32:27.135Z,49.9
2018-04-15T10:33:17.481Z,49.9
2018-04-15T10:34:06.793Z,49.9
2018-04-15T10:34:56.552Z,49.9
2018-04-15T10:35:47.185Z,49.9
2018-04-15T10:36:37.241Z,49.9
2018-04-15T10:37:27.301Z,49.9
2018-04-15T10:38:17.373Z,49.8
2018-04-15T10:39:07.451Z,49.8
2018-04-15T10:39:57.526Z,49.8
2018-04-15T10:40:47.269Z,49.8
2018-04-15T10:41:38.124Z,49.8
2018-04-15T10:42:27.919Z,49.7
2018-04-15T10:43:18.251Z,49.7
2018-04-15T10:44:08.036Z,49.7
2018-04-15T10:44:57.839Z,49.7
2018-04-15T10:45:48.438Z,49.6
2018-04-15T10:46:38.512Z,49.6
2018-04-15T10:47:28.305Z,49.6
2018-04-15T10:48:18.628Z,49.6
2018-04-15T10:49:08.160Z,49.6
2018-04-15T10:49:58.177Z,49.6
2018-04-15T10:50:48.552Z,49.6
2018-04-15T10:51:38.338Z,49.5
2018-04-15T10:52:28.691Z,49.4
2018-04-15T10:53:19.004Z,49.4
2018-04-15T10:54:08.344Z,49.3
2018-04-15T10:54:59.147Z,49.3
2018-04-15T10:55:48.448Z,49.3
2018-04-15T10:56:39.015Z,49.2
2018-04-15T10:57:28.289Z,49.1
2018-04-15T10:58:19.147Z,49.1
2018-04-15T10:59:09.167Z,49.1
2018-04-15T10:59:59.505Z,49.1
2018-04-15T11:00:49.104Z,49
2018-04-15T11:01:39.421Z,49
2018-04-15T11:02:29.253Z,49
2018-04-15T11:03:19.021Z,49
2018-04-15T11:04:09.893Z,48.9
2018-04-15T11:04:59.871Z,48.7
2018-04-15T11:05:49.979Z,48.5
2018-04-15T11:06:39.773Z,48.4
2018-04-15T11:07:29.821Z,48.3
2018-04-15T11:08:19.893Z,48.3
2018-04-15T11:09:09.698Z,48.3
2018-04-15T11:10:00.319Z,48.2
2018-04-15T11:10:49.780Z,48.1
2018-04-15T11:11:40.401Z,48.1
2018-04-15T11:12:29.918Z,48.1
2018-04-15T11:13:20.535Z,48
2018-04-15T11:14:10.697Z,48
2018-04-15T11:15:00.113Z,47.9
2018-04-15T11:15:49.980Z,47.9
2018-04-15T11:16:40.823Z,47.9
2018-04-15T11:17:30.592Z,47.9
2018-04-15T11:18:19.700Z,47.8
2018-04-15T11:19:10.526Z,47.8
2018-04-15T11:20:00.779Z,47.8
2018-04-15T11:20:51.133Z,47.8
2018-04-15T11:21:41.182Z,47.8
2018-04-15T11:22:30.775Z,47.7